Time;durP1;ratioP1;P1;durP2;ratioP2;P2;SDS_P1;SDS_P2;PMS_P1;PMS_P2;Temp;Humidity;BMP_temperature;BMP_pressure;BME280_temperature;BME280_humidity;BME280_pressure;Samples;Min_cycle;Max_cycle;Signal;HPM_P1;HPM_P2
2021/04/08 00:02:20;;;;;;;7.15;2.40;;;1.30;99.90;;;;;;5013545;28;20034;-91
2021/04/08 00:04:46;;;;;;;10.65;2.53;;;1.30;99.90;;;;;;5028787;28;20088;-89
2021/04/08 00:07:12;;;;;;;10.40;1.95;;;1.20;99.90;;;;;;5020389;28;20566;-90
2021/04/08 00:09:38;;;;;;;11.15;2.13;;;1.20;99.90;;;;;;5022780;28;20386;-90
2021/04/08 00:12:04;;;;;;;6.72;1.75;;;1.20;99.90;;;;;;5018111;28;20022;-89
2021/04/08 00:14:29;;;;;;;12.95;2.08;;;1.20;99.90;;;;;;5014469;28;20026;-90
2021/04/08 00:16:55;;;;;;;11.20;2.42;;;1.20;99.90;;;;;;5025458;28;20033;-91
2021/04/08 00:19:22;;;;;;;10.20;1.95;;;1.20;99.90;;;;;;5030510;28;20036;-91
2021/04/08 00:21:49;;;;;;;6.82;1.50;;;1.20;99.90;;;;;;5008610;28;20084;-90
2021/04/08 00:24:15;;;;;;;9.27;2.80;;;1.20;99.90;;;;;;5023114;28;20126;-91
2021/04/08 00:26:41;;;;;;;7.78;1.95;;;1.10;99.90;;;;;;5001725;28;20350;-92
2021/04/08 00:29:06;;;;;;;9.00;1.63;;;1.10;99.90;;;;;;5029918;28;20461;-90
2021/04/08 00:31:32;;;;;;;10.32;2.00;;;1.10;99.90;;;;;;5032277;28;20126;-93
2021/04/08 00:33:59;;;;;;;13.45;1.98;;;1.10;99.90;;;;;;5032000;28;20026;-91
2021/04/08 00:36:25;;;;;;;11.13;3.35;;;1.10;99.90;;;;;;5023364;28;20025;-90
2021/04/08 00:38:50;;;;;;;8.68;2.60;;;1.00;99.90;;;;;;5033364;28;20036;-92
2021/04/08 00:41:16;;;;;;;5.22;1.35;;;1.00;99.90;;;;;;5015082;28;20269;-91
2021/04/08 00:43:42;;;;;;;6.88;1.38;;;1.00;99.90;;;;;;5024475;28;20385;-91
2021/04/08 00:46:07;;;;;;;9.60;2.03;;;1.00;99.90;;;;;;5006359;28;20124;-92
2021/04/08 00:48:33;;;;;;;10.15;1.60;;;1.00;99.90;;;;;;5018920;28;20059;-91
2021/04/08 00:50:59;;;;;;;8.25;2.00;;;0.90;99.90;;;;;;5029514;28;20079;-91
2021/04/08 00:53:30;;;;;;;8.73;1.25;;;0.90;99.90;;;;;;5032370;28;20029;-91
2021/04/08 00:55:57;;;;;;;7.93;1.40;;;0.90;99.90;;;;;;5024887;28;20354;-90
2021/04/08 00:58:23;;;;;;;7.97;1.50;;;0.90;99.90;;;;;;5016930;28;20030;-90
2021/04/08 01:00:50;;;;;;;10.75;2.08;;;0.90;99.90;;;;;;5033103;28;20372;-92
2021/04/08 01:03:16;;;;;;;6.05;1.40;;;0.80;99.90;;;;;;5021284;28;20029;-91
2021/04/08 01:05:42;;;;;;;11.23;1.85;;;0.80;99.90;;;;;;5026497;28;20096;-89
2021/04/08 01:08:08;;;;;;;6.60;2.83;;;0.90;99.90;;;;;;5030676;28;20488;-91
2021/04/08 01:10:34;;;;;;;8.45;1.42;;;0.90;99.90;;;;;;5032525;28;20033;-91
2021/04/08 01:13:07;;;;;;;7.65;1.55;;;0.90;99.90;;;;;;5032804;28;20037;-92
2021/04/08 01:15:34;;;;;;;9.23;1.87;;;0.90;99.90;;;;;;5031698;28;20049;-90
2021/04/08 01:18:24;;;;;;;7.97;1.80;;;1.00;99.90;;;;;;5022406;28;20034;-92
2021/04/08 01:21:03;;;;;;;9.65;2.30;;;1.00;99.90;;;;;;5026921;28;20029;-90
2021/04/08 01:23:50;;;;;;;7.60;2.50;;;1.00;99.90;;;;;;5016192;28;20100;-91
2021/04/08 01:26:52;;;;;;;10.05;1.92;;;1.00;99.90;;;;;;5020505;28;20526;-93
2021/04/08 01:29:21;;;;;;;9.27;2.22;;;1.00;99.90;;;;;;5030242;28;20075;-92
2021/04/08 01:31:47;;;;;;;9.98;2.47;;;1.00;99.90;;;;;;5026231;28;20026;-93
2021/04/08 01:34:15;;;;;;;9.43;2.22;;;1.00;99.90;;;;;;5021249;28;20492;-93
2021/04/08 01:36:43;;;;;;;10.77;2.72;;;0.90;99.90;;;;;;5021992;28;20116;-93
2021/04/08 01:39:15;;;;;;;8.05;2.20;;;0.90;99.90;;;;;;5031417;28;20029;-92
2021/04/08 01:41:47;;;;;;;8.30;2.10;;;0.90;99.90;;;;;;5023943;28;20343;-92
2021/04/08 01:44:22;;;;;;;9.02;1.85;;;0.90;99.90;;;;;;5022903;28;20035;-91
2021/04/08 01:46:55;;;;;;;9.82;2.40;;;0.90;99.90;;;;;;5016410;28;20537;-92
2021/04/08 01:49:22;;;;;;;10.20;2.67;;;0.90;99.90;;;;;;5015422;28;20021;-91
2021/04/08 01:51:48;;;;;;;8.63;1.88;;;0.90;99.90;;;;;;5030930;28;20124;-92
2021/04/08 01:54:15;;;;;;;6.22;1.75;;;0.90;99.90;;;;;;5021358;28;20026;-92
2021/04/08 01:56:44;;;;;;;6.05;1.73;;;0.90;99.90;;;;;;5027111;28;20493;-94
2021/04/08 01:59:14;;;;;;;11.05;2.88;;;1.00;99.90;;;;;;5017113;28;20405;-91
2021/04/08 02:01:42;;;;;;;7.55;2.47;;;1.10;99.90;;;;;;5034904;28;20132;-92
2021/04/08 02:04:10;;;;;;;7.03;1.80;;;1.10;99.90;;;;;;5039528;28;20153;-93
2021/04/08 02:06:39;;;;;;;7.65;2.10;;;1.20;99.90;;;;;;5040447;28;20067;-91
2021/04/08 02:09:05;;;;;;;8.63;1.88;;;1.30;99.90;;;;;;5036531;28;20061;-90
2021/04/08 02:11:32;;;;;;;9.93;2.25;;;1.40;99.90;;;;;;5018495;28;20036;-92
2021/04/08 02:13:59;;;;;;;7.82;2.35;;;1.40;99.90;;;;;;5037464;28;20036;-92
2021/04/08 02:16:25;;;;;;;6.53;2.13;;;1.50;99.90;;;;;;5037209;28;20082;-92
2021/04/08 02:18:53;;;;;;;6.45;1.95;;;1.50;99.90;;;;;;5038328;28;20026;-92
2021/04/08 02:21:20;;;;;;;8.73;1.77;;;1.50;99.90;;;;;;5036506;28;20029;-92
2021/04/08 02:23:49;;;;;;;4.13;1.33;;;1.60;99.90;;;;;;5038468;28;20413;-91
2021/04/08 02:26:16;;;;;;;5.50;1.40;;;1.60;99.90;;;;;;5036257;28;20120;-92
2021/04/08 02:28:43;;;;;;;4.32;1.48;;;1.70;99.90;;;;;;5035574;28;20068;-91
2021/04/08 02:31:10;;;;;;;5.53;1.60;;;1.70;99.90;;;;;;5035595;28;20026;-91
2021/04/08 02:33:37;;;;;;;5.20;1.38;;;1.70;99.90;;;;;;5035940;28;20532;-92
2021/04/08 02:36:03;;;;;;;4.88;1.30;;;1.70;99.90;;;;;;5037145;28;20025;-93
2021/04/08 02:38:31;;;;;;;4.93;1.60;;;1.70;99.90;;;;;;5037794;28;20030;-91
2021/04/08 02:41:06;;;;;;;7.70;1.65;;;1.80;99.90;;;;;;5038004;28;20026;-92
2021/04/08 02:43:32;;;;;;;7.07;1.38;;;1.80;99.90;;;;;;5039479;28;20469;-90
2021/04/08 02:45:58;;;;;;;9.23;1.70;;;1.80;99.90;;;;;;5043931;28;20041;-91
2021/04/08 02:48:25;;;;;;;8.80;3.25;;;1.80;99.90;;;;;;5040417;28;20036;-93
2021/04/08 02:50:56;;;;;;;8.45;1.92;;;1.80;99.90;;;;;;5041827;28;20022;-91
2021/04/08 02:53:25;;;;;;;5.03;1.75;;;1.90;99.90;;;;;;5035978;28;20048;-92
2021/04/08 02:56:20;;;;;;;6.18;1.67;;;1.90;99.90;;;;;;5034780;28;20469;-92
2021/04/08 02:58:47;;;;;;;7.45;1.58;;;1.90;99.90;;;;;;5034239;28;20041;-92
2021/04/08 03:01:16;;;;;;;10.18;1.98;;;1.90;99.90;;;;;;5035114;28;20496;-92
2021/04/08 03:03:53;;;;;;;6.63;1.85;;;1.90;99.90;;;;;;5034955;28;20022;-91
2021/04/08 03:06:21;;;;;;;6.65;1.38;;;2.00;99.90;;;;;;5039820;28;20048;-91
2021/04/08 03:08:53;;;;;;;6.82;1.50;;;1.90;99.90;;;;;;5042254;28;20116;-91
2021/04/08 03:11:34;;;;;;;6.85;1.50;;;1.80;99.90;;;;;;5043479;28;20025;-92
2021/04/08 03:14:07;;;;;;;6.97;1.52;;;1.80;99.90;;;;;;5043379;28;20033;-92
2021/04/08 03:16:42;;;;;;;3.92;1.10;;;1.80;99.90;;;;;;5041589;28;20037;-93
2021/04/08 03:19:16;;;;;;;5.55;1.15;;;1.80;99.90;;;;;;5043052;28;20029;-91
2021/04/08 03:21:42;;;;;;;;;;;1.80;99.90;;;;;;5046542;28;20056;-93
2021/04/08 03:24:10;;;;;;;4.72;1.30;;;1.80;99.90;;;;;;5045135;28;19905;-92
2021/04/08 03:26:36;;;;;;;3.53;1.05;;;1.80;99.90;;;;;;5041741;28;20036;-92
2021/04/08 03:29:02;;;;;;;5.32;1.10;;;1.70;99.90;;;;;;5024887;28;20029;-91
2021/04/08 03:31:29;;;;;;;4.30;1.27;;;1.80;99.90;;;;;;5036411;28;20071;-92
2021/04/08 03:33:56;;;;;;;4.85;1.45;;;1.80;99.90;;;;;;5019259;28;20026;-92
2021/04/08 03:36:22;;;;;;;4.97;1.65;;;1.80;99.90;;;;;;5036345;28;20025;-92
2021/04/08 03:38:48;;;;;;;3.65;1.00;;;1.70;99.90;;;;;;5036329;28;20029;-90
2021/04/08 03:41:16;;;;;;;6.05;1.80;;;1.80;99.90;;;;;;5036744;28;20034;-92
2021/04/08 03:43:43;;;;;;;6.97;1.48;;;1.80;99.90;;;;;;5022309;28;20033;-90
2021/04/08 03:46:10;;;;;;;6.38;1.20;;;1.80;99.90;;;;;;5038168;28;20026;-92
2021/04/08 03:48:39;;;;;;;5.07;1.60;;;1.80;99.90;;;;;;5042752;28;20026;-92
2021/04/08 03:51:06;;;;;;;5.32;1.17;;;1.80;99.90;;;;;;5047426;28;20029;-91
2021/04/08 03:53:33;;;;;;;4.65;1.40;;;1.80;99.90;;;;;;5047815;28;20032;-92
2021/04/08 03:56:00;;;;;;;6.65;1.50;;;1.80;99.90;;;;;;5052375;28;20029;-91
2021/04/08 03:58:29;;;;;;;5.90;1.30;;;1.90;99.90;;;;;;5051514;28;20096;-91
2021/04/08 04:00:59;;;;;;;3.13;1.02;;;1.80;99.90;;;;;;5051478;28;20021;-93
2021/04/08 04:03:25;;;;;;;2.72;1.05;;;1.80;99.90;;;;;;5050028;28;20025;-92
2021/04/08 04:05:53;;;;;;;5.93;1.48;;;1.90;99.90;;;;;;5048756;28;20045;-92
2021/04/08 04:08:19;;;;;;;8.00;1.40;;;1.90;99.90;;;;;;5051732;28;20030;-92
2021/04/08 04:10:57;;;;;;;3.22;1.10;;;1.90;99.90;;;;;;5054905;28;20025;-93
2021/04/08 04:13:23;;;;;;;4.55;0.80;;;1.90;99.90;;;;;;5034062;28;20049;-91
2021/04/08 04:15:50;;;;;;;2.63;0.85;;;1.90;99.90;;;;;;5050468;28;20021;-91
2021/04/08 04:18:19;;;;;;;2.78;0.80;;;1.90;99.90;;;;;;5050630;28;20478;-90
2021/04/08 04:20:48;;;;;;;3.22;1.05;;;1.90;99.90;;;;;;5051775;28;20025;-91
2021/04/08 04:23:14;;;;;;;4.55;0.98;;;1.90;99.90;;;;;;5053306;28;20025;-90
2021/04/08 04:25:47;;;;;;;7.65;1.50;;;2.00;99.90;;;;;;5053621;28;20032;-92
2021/04/08 04:28:13;;;;;;;4.28;1.35;;;1.90;99.90;;;;;;5052997;28;20045;-91
2021/04/08 04:30:39;;;;;;;3.35;1.17;;;1.90;99.90;;;;;;5051635;28;20029;-91
2021/04/08 04:33:06;;;;;;;4.55;1.33;;;1.90;99.90;;;;;;5052513;28;20036;-92
2021/04/08 04:35:32;;;;;;;4.85;1.70;;;1.90;99.90;;;;;;5049823;28;20029;-92
2021/04/08 04:38:00;;;;;;;5.78;1.48;;;1.90;99.90;;;;;;5045172;28;20033;-91
2021/04/08 04:40:29;;;;;;;7.05;1.30;;;2.00;99.90;;;;;;5043522;28;20057;-91
2021/04/08 04:42:55;;;;;;;8.27;1.50;;;1.90;99.90;;;;;;5038916;28;20033;-90
2021/04/08 04:45:21;;;;;;;4.30;1.20;;;2.00;99.90;;;;;;5038769;28;20477;-92
2021/04/08 04:47:47;;;;;;;3.90;1.23;;;2.00;99.90;;;;;;5038966;28;20026;-91
2021/04/08 04:50:14;;;;;;;5.40;1.10;;;2.00;99.90;;;;;;5042365;28;20041;-91
2021/04/08 04:52:41;;;;;;;3.20;0.90;;;2.00;99.90;;;;;;5045036;28;20075;-92
2021/04/08 04:55:09;;;;;;;3.92;1.00;;;2.00;99.90;;;;;;5044998;28;20477;-91
2021/04/08 04:57:35;;;;;;;4.72;1.42;;;2.00;99.90;;;;;;5029142;28;20056;-92
2021/04/08 05:00:03;;;;;;;3.97;1.25;;;2.00;99.90;;;;;;5046496;28;20033;-92
2021/04/08 05:02:38;;;;;;;4.13;1.40;;;2.00;99.90;;;;;;5041060;28;20028;-92
2021/04/08 05:05:06;;;;;;;4.40;1.25;;;2.10;99.90;;;;;;5021915;28;20401;-93
2021/04/08 05:07:32;;;;;;;3.78;1.60;;;2.10;99.90;;;;;;5019614;28;20096;-92
2021/04/08 05:09:59;;;;;;;4.40;1.40;;;2.10;99.90;;;;;;5039986;28;20021;-92
2021/04/08 05:12:24;;;;;;;10.30;2.40;;;2.10;99.90;;;;;;5039568;28;20025;-91
2021/04/08 05:14:53;;;;;;;5.72;1.80;;;2.10;99.90;;;;;;5044764;28;20034;-90
2021/04/08 05:17:21;;;;;;;4.07;1.60;;;2.10;99.90;;;;;;5041989;28;20028;-89
2021/04/08 05:19:47;;;;;;;6.60;1.88;;;2.10;99.90;;;;;;5044762;28;20030;-91
2021/04/08 05:22:16;;;;;;;6.50;2.40;;;2.10;99.90;;;;;;5043274;28;20029;-91
2021/04/08 05:24:42;;;;;;;3.67;1.45;;;2.10;99.90;;;;;;5040829;28;20025;-90
2021/04/08 05:27:10;;;;;;;3.75;1.83;;;2.10;99.90;;;;;;5040825;28;20024;-92
2021/04/08 05:29:36;;;;;;;5.53;2.17;;;2.20;99.90;;;;;;5023415;28;20033;-92
2021/04/08 05:32:02;;;;;;;8.52;2.78;;;2.20;99.90;;;;;;5037626;28;20074;-91
2021/04/08 05:34:28;;;;;;;6.30;2.72;;;2.20;99.90;;;;;;5036709;28;20049;-91
2021/04/08 05:37:00;;;;;;;6.43;2.88;;;2.20;99.90;;;;;;5005869;28;20091;-91
2021/04/08 05:39:26;;;;;;;8.88;3.70;;;2.30;99.90;;;;;;5047325;28;20092;-91
2021/04/08 05:41:52;;;;;;;8.25;3.80;;;2.30;99.90;;;;;;5055979;28;20033;-91
2021/04/08 05:44:19;;;;;;;8.77;4.20;;;2.30;99.90;;;;;;5052778;28;20045;-92
2021/04/08 05:46:46;;;;;;;10.07;4.10;;;2.40;99.90;;;;;;5038618;28;20022;-91
2021/04/08 05:49:12;;;;;;;8.82;5.20;;;2.40;99.90;;;;;;5036405;28;20033;-90
2021/04/08 05:51:37;;;;;;;8.65;4.50;;;2.40;99.90;;;;;;5022187;28;20029;-91
2021/04/08 05:54:03;;;;;;;9.25;4.65;;;2.40;99.90;;;;;;5036227;28;20033;-90
2021/04/08 05:56:30;;;;;;;10.00;4.55;;;2.40;99.90;;;;;;5037912;28;20104;-91
2021/04/08 05:58:58;;;;;;;10.73;4.82;;;2.50;99.90;;;;;;5020068;28;20531;-91
2021/04/08 06:01:49;;;;;;;9.02;4.60;;;2.50;99.90;;;;;;5037757;28;20472;-91
2021/04/08 06:04:21;;;;;;;13.38;5.13;;;2.50;99.90;;;;;;5038489;28;20022;-91
2021/04/08 06:06:59;;;;;;;11.40;4.90;;;2.50;99.90;;;;;;5005092;28;20474;-94
2021/04/08 06:09:27;;;;;;;13.10;5.85;;;2.50;99.90;;;;;;5035943;28;20061;-92
2021/04/08 06:12:04;;;;;;;7.82;4.78;;;2.60;99.90;;;;;;5035805;28;20025;-93
2021/04/08 06:14:31;;;;;;;8.48;5.50;;;2.60;99.90;;;;;;5005086;28;20030;-92
2021/04/08 06:17:05;;;;;;;11.60;5.65;;;2.60;99.90;;;;;;5018078;28;20075;-91
2021/04/08 06:20:23;;;;;;;;;;;;;;;;;;;;;
2021/04/08 06:23:06;;;;;;;12.48;7.18;;;2.70;99.90;;;;;;5039014;28;20037;-92
2021/04/08 06:25:33;;;;;;;9.63;4.75;;;2.70;99.90;;;;;;5046980;28;20043;-93
2021/04/08 06:28:06;;;;;;;11.10;4.43;;;2.70;99.90;;;;;;5056537;28;20032;-92
2021/04/08 06:33:40;;;;;;;8.02;4.32;;;2.70;99.90;;;;;;5022195;28;20124;-92
2021/04/08 06:36:12;;;;;;;8.05;4.85;;;2.70;99.90;;;;;;5035083;28;20108;-91
2021/04/08 06:38:48;;;;;;;8.32;4.50;;;2.60;99.90;;;;;;5035207;28;20033;-92
2021/04/08 06:41:15;;;;;;;14.20;4.95;;;2.60;99.90;;;;;;5017960;28;20041;-91
2021/04/08 06:43:53;;;;;;;8.70;4.78;;;2.50;99.90;;;;;;5034367;28;20049;-91
2021/04/08 06:46:26;;;;;;;6.45;4.18;;;2.50;99.90;;;;;;5008419;28;20401;-90
2021/04/08 06:49:13;;;;;;;6.68;4.32;;;2.50;99.90;;;;;;5029762;28;20385;-92
2021/04/08 06:51:53;;;;;;;8.27;4.63;;;2.50;99.90;;;;;;5035340;28;20021;-92
2021/04/08 06:54:22;;;;;;;11.73;4.78;;;2.50;99.90;;;;;;5034833;28;20018;-92
2021/04/08 06:57:05;;;;;;;14.20;5.60;;;2.50;99.90;;;;;;5004035;28;20108;-92
2021/04/08 06:59:34;;;;;;;12.30;5.00;;;2.50;99.90;;;;;;5019156;28;20492;-91
2021/04/08 07:02:33;;;;;;;;;;;;;;;;;;;;;
2021/04/08 07:05:17;;;;;;;8.18;4.93;;;2.70;99.90;;;;;;5030750;28;20033;-91
2021/04/08 07:07:53;;;;;;;7.72;4.30;;;2.70;99.90;;;;;;5020844;28;20045;-92
2021/04/08 07:10:38;;;;;;;11.30;5.20;;;2.80;99.90;;;;;;5033156;28;20462;-92
2021/04/08 07:13:07;;;;;;;7.97;4.60;;;3.00;99.90;;;;;;5033722;28;20061;-90
2021/04/08 07:15:48;;;;;;;11.10;5.28;;;3.10;99.90;;;;;;5033841;28;20029;-91
2021/04/08 07:18:15;;;;;;;10.52;4.55;;;3.20;99.90;;;;;;5034479;28;20420;-91
2021/04/08 07:21:02;;;;;;;9.57;4.82;;;3.40;99.90;;;;;;5033783;28;20096;-91
2021/04/08 07:23:29;;;;;;;8.85;5.00;;;3.50;99.90;;;;;;5017212;28;20446;-92
2021/04/08 07:26:10;;;;;;;10.48;5.30;;;3.60;99.90;;;;;;5026182;28;20049;-91
2021/04/08 07:28:41;;;;;;;8.27;4.07;;;3.80;99.90;;;;;;5026893;28;20389;-90
2021/04/08 07:31:33;;;;;;;8.75;4.80;;;4.00;99.90;;;;;;5037249;28;20026;-92
2021/04/08 07:34:03;;;;;;;14.45;5.20;;;4.10;99.90;;;;;;5021986;28;20402;-91
2021/04/08 07:36:35;;;;;;;11.98;5.15;;;4.30;99.90;;;;;;5038209;28;20515;-91
2021/04/08 07:39:27;;;;;;;12.73;4.88;;;4.40;99.90;;;;;;5037538;28;20061;-91
2021/04/08 07:42:03;;;;;;;9.07;5.22;;;4.70;99.90;;;;;;5024294;28;20446;-92
2021/04/08 07:44:48;;;;;;;8.18;4.47;;;4.90;99.90;;;;;;5020920;28;20064;-91
2021/04/08 07:47:18;;;;;;;7.20;3.92;;;5.20;99.90;;;;;;5037843;28;20037;-92
2021/04/08 07:49:44;;;;;;;8.48;4.43;;;5.40;99.90;;;;;;5037689;28;20072;-91
2021/04/08 07:52:31;;;;;;;9.27;3.80;;;5.50;99.90;;;;;;5037125;28;20029;-90
2021/04/08 07:54:59;;;;;;;7.50;3.40;;;5.50;99.90;;;;;;5037820;28;20485;-89
2021/04/08 07:57:28;;;;;;;8.20;3.40;;;5.50;99.90;;;;;;5037594;28;20029;-90
2021/04/08 07:59:55;;;;;;;6.57;3.25;;;5.50;99.90;;;;;;5037644;28;20026;-91
2021/04/08 08:02:24;;;;;;;7.25;3.22;;;5.60;99.90;;;;;;5039365;28;20124;-93
2021/04/08 08:04:50;;;;;;;10.13;3.90;;;5.60;99.90;;;;;;5039296;28;20032;-92
2021/04/08 08:07:29;;;;;;;9.73;3.78;;;5.50;99.90;;;;;;5037192;28;20049;-91
2021/04/08 08:10:00;;;;;;;6.45;3.47;;;5.50;99.90;;;;;;5037480;28;20493;-93
2021/04/08 08:12:35;;;;;;;8.23;3.30;;;5.40;99.90;;;;;;5037705;28;20045;-92
2021/04/08 08:15:35;;;;;;;8.68;3.60;;;5.30;99.90;;;;;;5038522;28;20053;-93
2021/04/08 08:18:01;;;;;;;5.38;3.25;;;5.30;99.90;;;;;;5036206;28;20030;-92
2021/04/08 08:20:27;;;;;;;8.68;3.58;;;5.30;99.90;;;;;;5019494;28;20029;-91
2021/04/08 08:22:53;;;;;;;8.00;3.72;;;5.40;99.90;;;;;;5021421;28;20029;-92
2021/04/08 08:25:27;;;;;;;9.02;3.90;;;5.40;99.90;;;;;;5017393;28;20433;-93
2021/04/08 08:27:54;;;;;;;7.72;4.00;;;5.50;99.90;;;;;;5021557;28;20026;-92
2021/04/08 08:30:31;;;;;;;5.72;3.30;;;5.60;99.90;;;;;;5036059;28;20033;-91
2021/04/08 08:33:04;;;;;;;10.75;3.35;;;5.60;99.90;;;;;;5036106;28;20175;-92
2021/04/08 08:35:34;;;;;;;5.80;3.03;;;5.70;99.90;;;;;;5037273;28;20025;-91
2021/04/08 08:38:20;;;;;;;8.57;3.55;;;5.80;99.90;;;;;;5037590;28;20041;-91
2021/04/08 08:40:48;;;;;;;5.72;3.00;;;5.90;99.90;;;;;;5019513;28;20069;-91
2021/04/08 08:43:17;;;;;;;6.45;2.97;;;6.00;99.90;;;;;;5037306;28;20108;-92
2021/04/08 08:45:44;;;;;;;6.18;2.83;;;6.10;99.90;;;;;;5037166;28;20025;-91
2021/04/08 08:48:19;;;;;;;11.48;2.80;;;6.20;99.90;;;;;;5019799;28;20064;-92
2021/04/08 08:50:55;;;;;;;7.28;3.03;;;6.30;99.90;;;;;;5036169;28;20030;-91
2021/04/08 08:53:23;;;;;;;7.40;3.10;;;6.50;99.90;;;;;;5020638;28;20026;-91
2021/04/08 08:55:52;;;;;;;5.25;2.38;;;6.70;99.90;;;;;;5019941;28;20032;-90
2021/04/08 08:58:18;;;;;;;7.60;2.70;;;6.90;99.90;;;;;;5036508;28;20065;-90
2021/04/08 09:00:45;;;;;;;7.35;3.25;;;6.80;98.10;;;;;;5037139;28;20041;-91
2021/04/08 09:03:11;;;;;;;5.32;2.95;;;6.70;97.70;;;;;;5035769;28;20029;-90
2021/04/08 09:05:37;;;;;;;6.15;2.78;;;6.60;96.70;;;;;;5036695;28;20133;-90
2021/04/08 09:08:11;;;;;;;4.97;2.47;;;6.50;95.30;;;;;;5035972;28;20516;-90
2021/04/08 09:10:40;;;;;;;9.02;3.03;;;6.50;95.40;;;;;;5036612;28;20052;-90
2021/04/08 09:13:06;;;;;;;9.60;3.15;;;6.50;94.80;;;;;;5019767;28;20041;-90
2021/04/08 09:15:35;;;;;;;7.53;3.22;;;6.60;95.10;;;;;;5036156;28;20041;-91
2021/04/08 09:18:04;;;;;;;6.50;3.25;;;6.70;95.40;;;;;;5036045;28;20485;-89
2021/04/08 09:20:31;;;;;;;6.55;3.10;;;6.90;95.00;;;;;;5036761;28;20036;-91
2021/04/08 09:23:03;;;;;;;10.15;3.60;;;7.10;94.10;;;;;;5035355;28;20024;-93
2021/04/08 09:25:33;;;;;;;9.52;2.90;;;7.20;93.00;;;;;;5036684;28;20021;-90
2021/04/08 09:28:08;;;;;;;4.82;2.60;;;7.30;93.90;;;;;;5035794;28;20034;-90
2021/04/08 09:36:22;;;;;;;7.63;3.33;;;8.00;92.70;;;;;;5036842;28;20061;-90
2021/04/08 09:38:49;;;;;;;7.20;3.10;;;8.20;93.00;;;;;;5037229;28;20108;-92
2021/04/08 09:41:14;;;;;;;6.40;3.30;;;8.40;93.40;;;;;;5039960;28;20029;-89
2021/04/08 09:43:40;;;;;;;7.15;3.80;;;8.80;93.40;;;;;;5041458;28;20029;-90
2021/04/08 09:46:09;;;;;;;8.88;3.75;;;9.40;92.30;;;;;;5035949;28;20029;-91
2021/04/08 09:49:04;;;;;;;5.72;3.58;;;10.30;92.20;;;;;;5035515;28;20072;-92
2021/04/08 09:51:32;;;;;;;8.35;3.80;;;10.80;88.10;;;;;;5026687;28;20033;-91
2021/04/08 09:54:00;;;;;;;7.47;3.47;;;10.50;84.60;;;;;;5034462;28;20100;-91
2021/04/08 09:56:46;;;;;;;8.48;3.60;;;10.00;85.40;;;;;;5035082;28;20109;-91
2021/04/08 09:59:14;;;;;;;6.55;3.60;;;9.70;85.50;;;;;;5036270;28;20093;-92
2021/04/08 10:01:39;;;;;;;7.35;3.20;;;9.40;84.70;;;;;;5018702;28;20037;-92
2021/04/08 10:04:15;;;;;;;6.80;3.40;;;9.20;87.00;;;;;;5035284;28;20096;-92
2021/04/08 10:06:42;;;;;;;7.57;4.05;;;9.20;86.60;;;;;;5034451;28;20496;-91
2021/04/08 10:09:14;;;;;;;8.23;4.10;;;9.00;85.80;;;;;;5035878;28;20025;-91
2021/04/08 10:11:44;;;;;;;7.68;4.45;;;8.90;85.00;;;;;;5019189;28;20036;-91
2021/04/08 10:14:30;;;;;;;6.35;3.50;;;8.90;85.60;;;;;;5034928;28;20029;-93
2021/04/08 10:17:11;;;;;;;6.18;3.80;;;8.90;86.10;;;;;;5035057;28;20469;-93
2021/04/08 10:19:39;;;;;;;6.18;4.07;;;8.90;85.50;;;;;;5034750;28;20029;-92
2021/04/08 10:22:06;;;;;;;7.85;4.43;;;8.80;82.00;;;;;;5034862;28;20026;-92
2021/04/08 10:24:43;;;;;;;6.68;4.07;;;8.70;80.40;;;;;;5036316;28;20065;-92
2021/04/08 10:27:17;;;;;;;7.93;5.22;;;8.70;81.80;;;;;;5034618;28;20049;-93
2021/04/08 10:29:44;;;;;;;8.15;3.90;;;8.70;83.00;;;;;;5050923;28;20037;-92
2021/04/08 10:32:10;;;;;;;6.90;4.63;;;8.70;82.10;;;;;;5034342;28;20028;-92
2021/04/08 10:34:41;;;;;;;9.27;4.85;;;8.60;78.40;;;;;;5034546;28;20022;-94
2021/04/08 10:37:09;;;;;;;6.70;4.85;;;8.60;80.70;;;;;;5034636;28;20099;-92
2021/04/08 10:39:41;;;;;;;8.52;4.63;;;8.50;79.20;;;;;;5034557;28;20021;-93
2021/04/08 10:42:14;;;;;;;8.90;5.25;;;8.50;80.70;;;;;;5019107;28;20083;-92
2021/04/08 10:44:47;;;;;;;7.47;4.82;;;8.50;80.30;;;;;;5036113;28;20058;-92
2021/04/08 10:47:15;;;;;;;9.50;4.65;;;8.50;82.00;;;;;;5031403;28;20031;-93
2021/04/08 10:49:57;;;;;;;9.85;5.10;;;8.50;80.20;;;;;;5034626;28;20033;-93
2021/04/08 10:52:25;;;;;;;7.10;4.45;;;8.50;81.10;;;;;;5037381;28;20068;-91
2021/04/08 10:54:59;;;;;;;8.30;4.57;;;8.50;81.30;;;;;;5037448;28;20498;-93
2021/04/08 10:57:29;;;;;;;7.72;4.50;;;8.50;81.20;;;;;;5038523;28;20080;-93
2021/04/08 10:59:57;;;;;;;9.88;4.88;;;8.60;80.70;;;;;;5036775;28;20508;-93
2021/04/08 11:02:22;;;;;;;8.48;4.68;;;8.70;81.20;;;;;;5022859;28;20048;-92
2021/04/08 11:04:50;;;;;;;9.25;4.53;;;8.80;81.80;;;;;;5041824;28;20033;-93
2021/04/08 11:07:16;;;;;;;7.80;5.10;;;8.80;81.00;;;;;;5037105;28;20053;-93
2021/04/08 11:09:49;;;;;;;7.72;4.50;;;8.80;82.00;;;;;;5032691;28;20037;-93
2021/04/08 11:12:27;;;;;;;;;;;8.70;83.20;;;;;;5027123;28;20105;-92
2021/04/08 11:14:55;;;;;;;8.95;5.28;;;8.80;83.70;;;;;;5038121;28;20391;-93
2021/04/08 11:17:24;;;;;;;12.95;5.05;;;8.90;80.90;;;;;;5042937;28;20025;-91
2021/04/08 11:19:57;;;;;;;7.25;4.90;;;9.00;82.10;;;;;;5038414;28;20029;-93
2021/04/08 11:22:28;;;;;;;7.10;5.10;;;9.00;81.20;;;;;;5027635;28;20079;-92
2021/04/08 11:24:59;;;;;;;8.50;5.38;;;8.90;80.40;;;;;;5032572;28;20026;-93
2021/04/08 11:27:40;;;;;;;7.80;4.75;;;8.90;79.70;;;;;;5038520;28;20033;-93
2021/04/08 11:30:18;;;;;;;7.03;4.50;;;8.90;80.40;;;;;;5033873;28;20028;-92
2021/04/08 11:32:46;;;;;;;10.48;5.00;;;9.00;80.80;;;;;;5036612;28;20029;-92
2021/04/08 11:35:32;;;;;;;10.40;5.53;;;9.20;81.50;;;;;;5033610;28;20099;-94
2021/04/08 11:38:10;;;;;;;9.65;4.82;;;9.30;80.50;;;;;;5036584;28;20033;-92
2021/04/08 11:41:00;;;;;;;10.45;5.72;;;9.40;82.60;;;;;;5036289;28;20038;-92
2021/04/08 11:43:33;;;;;;;9.35;5.68;;;9.50;81.80;;;;;;5037006;28;20026;-94
2021/04/08 11:46:07;;;;;;;8.77;5.57;;;9.60;80.00;;;;;;5036643;28;20018;-92
2021/04/08 11:48:45;;;;;;;9.23;5.32;;;9.50;81.90;;;;;;5036834;28;20775;-91
2021/04/08 11:51:13;;;;;;;10.20;5.53;;;9.40;81.00;;;;;;5034254;28;20105;-91
2021/04/08 11:53:44;;;;;;;9.45;6.00;;;9.30;81.00;;;;;;5034058;28;20389;-92
2021/04/08 11:56:35;;;;;;;9.50;6.35;;;9.10;79.40;;;;;;5033802;28;20108;-91
2021/04/08 11:59:19;;;;;;;7.20;5.72;;;8.90;81.30;;;;;;5029204;28;20029;-92
2021/04/08 12:01:52;;;;;;;8.70;5.55;;;8.80;80.70;;;;;;5032953;28;20100;-90
2021/04/08 12:04:28;;;;;;;9.05;6.07;;;8.70;83.30;;;;;;5038903;28;20029;-91
2021/04/08 12:06:59;;;;;;;10.57;6.60;;;8.70;82.60;;;;;;5036824;28;20409;-90
2021/04/08 12:09:39;;;;;;;7.45;5.75;;;8.80;81.60;;;;;;5036275;28;20037;-91
2021/04/08 12:12:09;;;;;;;6.60;5.43;;;8.70;81.80;;;;;;5026615;28;20373;-92
2021/04/08 12:15:12;;;;;;;8.75;6.32;;;8.80;82.90;;;;;;5028976;28;20049;-90
2021/04/08 12:17:38;;;;;;;12.13;6.83;;;8.90;82.00;;;;;;5033465;28;20029;-90
2021/04/08 12:20:20;;;;;;;13.07;6.70;;;9.00;82.80;;;;;;5038944;28;20029;-91
2021/04/08 12:22:47;;;;;;;8.57;6.03;;;9.00;81.90;;;;;;5009519;28;20030;-89
2021/04/08 12:25:18;;;;;;;9.18;6.13;;;9.10;82.60;;;;;;5036268;28;20129;-88
2021/04/08 12:27:44;;;;;;;8.73;6.50;;;9.20;82.70;;;;;;5038175;28;20049;-92
2021/04/08 12:30:14;;;;;;;8.27;6.07;;;9.20;80.90;;;;;;5038186;28;20025;-92
2021/04/08 12:32:45;;;;;;;7.80;5.60;;;9.20;82.80;;;;;;5026093;28;20041;-91
2021/04/08 12:35:11;;;;;;;10.20;7.13;;;9.30;84.70;;;;;;5019446;28;20035;-89
2021/04/08 12:37:37;;;;;;;9.63;6.88;;;9.40;82.40;;;;;;5024761;28;20021;-89
2021/04/08 12:40:04;;;;;;;11.38;7.40;;;9.40;82.70;;;;;;5024268;28;20055;-90
2021/04/08 12:42:30;;;;;;;10.65;7.00;;;9.40;82.00;;;;;;5031285;28;20029;-92
2021/04/08 12:44:56;;;;;;;9.85;7.60;;;9.30;82.90;;;;;;5035647;28;20462;-90
2021/04/08 12:47:22;;;;;;;11.35;7.57;;;9.30;82.90;;;;;;5031203;28;20429;-90
2021/04/08 12:49:53;;;;;;;11.63;7.63;;;9.20;82.40;;;;;;5032220;28;20029;-90
2021/04/08 12:52:19;;;;;;;10.30;8.05;;;9.10;81.70;;;;;;5030882;28;20330;-89
2021/04/08 12:54:46;;;;;;;11.80;7.68;;;9.10;81.80;;;;;;5030007;28;20245;-89
2021/04/08 12:57:11;;;;;;;11.43;8.10;;;9.10;83.40;;;;;;5032827;28;20631;-89
2021/04/08 12:59:38;;;;;;;9.85;7.68;;;9.20;82.30;;;;;;5030204;28;20136;-89
2021/04/08 13:02:03;;;;;;;11.90;7.22;;;9.30;82.20;;;;;;5029576;28;20029;-90
2021/04/08 13:04:31;;;;;;;11.88;8.00;;;9.30;81.20;;;;;;5029221;28;20044;-89
2021/04/08 13:06:56;;;;;;;12.05;7.90;;;9.30;83.10;;;;;;5022772;28;20053;-89
2021/04/08 13:09:22;;;;;;;9.48;7.35;;;9.30;82.70;;;;;;5028684;28;20029;-90
2021/04/08 13:11:48;;;;;;;12.10;7.22;;;9.40;82.00;;;;;;5026853;28;20025;-91
2021/04/08 13:14:13;;;;;;;9.93;7.35;;;9.50;82.00;;;;;;5024295;28;20033;-91
2021/04/08 13:16:51;;;;;;;10.70;6.35;;;9.60;80.50;;;;;;5015086;28;20470;-92
2021/04/08 13:19:17;;;;;;;9.05;6.50;;;9.70;80.10;;;;;;5030050;28;20034;-89
2021/04/08 13:21:46;;;;;;;9.05;6.53;;;10.10;78.80;;;;;;5026556;28;20032;-91
2021/04/08 13:24:13;;;;;;;10.10;6.95;;;10.30;79.70;;;;;;5024430;28;20037;-91
2021/04/08 13:26:38;;;;;;;9.30;6.70;;;10.60;78.80;;;;;;5031866;28;20473;-90